sensor_id;sensor_type;location;lat;lon;timestamp;temperature;humidity
28548;DHT22;68292;49.600;8.746;2024-01-10T00:00:33;9.10;30.70
28548;DHT22;68292;49.600;8.746;2024-01-10T00:03:02;9.00;30.80
28548;DHT22;68292;49.600;8.746;2024-01-10T00:05:32;9.00;30.80
28548;DHT22;68292;49.600;8.746;2024-01-10T00:08:01;9.00;30.70
28548;DHT22;68292;49.600;8.746;2024-01-10T00:10:30;9.00;30.80
28548;DHT22;68292;49.600;8.746;2024-01-10T00:12:58;9.00;30.80
28548;DHT22;68292;49.600;8.746;2024-01-10T00:15:27;9.00;30.80
28548;DHT22;68292;49.600;8.746;2024-01-10T00:17:56;9.00;30.80
28548;DHT22;68292;49.600;8.746;2024-01-10T00:20:25;9.00;30.80
28548;DHT22;68292;49.600;8.746;2024-01-10T00:22:55;9.00;30.70
28548;DHT22;68292;49.600;8.746;2024-01-10T00:25:23;8.90;30.70
28548;DHT22;68292;49.600;8.746;2024-01-10T00:27:52;8.90;30.80
28548;DHT22;68292;49.600;8.746;2024-01-10T00:30:21;8.90;30.80
28548;DHT22;68292;49.600;8.746;2024-01-10T00:32:50;8.90;30.80
28548;DHT22;68292;49.600;8.746;2024-01-10T00:35:19;8.90;30.90
28548;DHT22;68292;49.600;8.746;2024-01-10T00:37:48;8.90;30.90
28548;DHT22;68292;49.600;8.746;2024-01-10T00:40:18;8.90;30.90
28548;DHT22;68292;49.600;8.746;2024-01-10T00:42:47;8.90;30.90
28548;DHT22;68292;49.600;8.746;2024-01-10T00:45:16;8.80;30.80
28548;DHT22;68292;49.600;8.746;2024-01-10T00:47:45;8.80;30.90
28548;DHT22;68292;49.600;8.746;2024-01-10T00:50:13;8.80;30.90
28548;DHT22;68292;49.600;8.746;2024-01-10T00:52:44;8.80;30.90
28548;DHT22;68292;49.600;8.746;2024-01-10T00:55:13;8.80;30.90
28548;DHT22;68292;49.600;8.746;2024-01-10T00:57:43;8.80;30.90
28548;DHT22;68292;49.600;8.746;2024-01-10T01:00:13;8.80;30.80
28548;DHT22;68292;49.600;8.746;2024-01-10T01:02:42;8.80;30.80
28548;DHT22;68292;49.600;8.746;2024-01-10T01:05:12;8.70;30.80
28548;DHT22;68292;49.600;8.746;2024-01-10T01:07:41;8.70;30.70
28548;DHT22;68292;49.600;8.746;2024-01-10T01:10:10;8.70;30.80
28548;DHT22;68292;49.600;8.746;2024-01-10T01:12:39;8.70;30.80
28548;DHT22;68292;49.600;8.746;2024-01-10T01:15:09;8.70;30.80
28548;DHT22;68292;49.600;8.746;2024-01-10T01:17:38;8.70;30.80
28548;DHT22;68292;49.600;8.746;2024-01-10T01:20:07;8.70;30.90
28548;DHT22;68292;49.600;8.746;2024-01-10T01:22:37;8.60;30.90
28548;DHT22;68292;49.600;8.746;2024-01-10T01:25:06;8.60;30.80
28548;DHT22;68292;49.600;8.746;2024-01-10T01:27:36;8.60;30.80
28548;DHT22;68292;49.600;8.746;2024-01-10T01:30:06;8.60;30.80
28548;DHT22;68292;49.600;8.746;2024-01-10T01:32:36;8.60;30.90
28548;DHT22;68292;49.600;8.746;2024-01-10T01:35:06;8.60;30.90
28548;DHT22;68292;49.600;8.746;2024-01-10T01:37:34;8.60;30.90
28548;DHT22;68292;49.600;8.746;2024-01-10T01:40:04;8.60;30.90
28548;DHT22;68292;49.600;8.746;2024-01-10T01:42:34;8.50;30.90
28548;DHT22;68292;49.600;8.746;2024-01-10T01:45:03;8.50;30.90
28548;DHT22;68292;49.600;8.746;2024-01-10T01:47:32;8.50;30.90
28548;DHT22;68292;49.600;8.746;2024-01-10T01:50:03;8.50;30.90
28548;DHT22;68292;49.600;8.746;2024-01-10T01:52:33;8.50;30.90
28548;DHT22;68292;49.600;8.746;2024-01-10T01:55:03;8.50;30.90
28548;DHT22;68292;49.600;8.746;2024-01-10T01:57:33;8.50;30.90
28548;DHT22;68292;49.600;8.746;2024-01-10T02:00:03;8.50;30.90
28548;DHT22;68292;49.600;8.746;2024-01-10T02:02:32;8.50;30.90
28548;DHT22;68292;49.600;8.746;2024-01-10T02:05:04;8.50;30.90
28548;DHT22;68292;49.600;8.746;2024-01-10T02:07:33;8.50;30.90
28548;DHT22;68292;49.600;8.746;2024-01-10T02:10:02;8.40;30.90
28548;DHT22;68292;49.600;8.746;2024-01-10T02:12:31;8.40;31.00
28548;DHT22;68292;49.600;8.746;2024-01-10T02:15:00;8.40;31.00
28548;DHT22;68292;49.600;8.746;2024-01-10T02:17:30;8.40;31.10
28548;DHT22;68292;49.600;8.746;2024-01-10T02:20:09;8.50;31.10
28548;DHT22;68292;49.600;8.746;2024-01-10T02:22:39;8.50;31.00
28548;DHT22;68292;49.600;8.746;2024-01-10T02:25:10;8.50;31.20
28548;DHT22;68292;49.600;8.746;2024-01-10T02:27:39;8.50;31.10
28548;DHT22;68292;49.600;8.746;2024-01-10T02:30:09;8.50;31.80
28548;DHT22;68292;49.600;8.746;2024-01-10T02:32:39;8.50;31.10
28548;DHT22;68292;49.600;8.746;2024-01-10T02:35:08;8.40;31.10
28548;DHT22;68292;49.600;8.746;2024-01-10T02:37:37;8.50;31.00
28548;DHT22;68292;49.600;8.746;2024-01-10T02:40:06;8.50;30.90
28548;DHT22;68292;49.600;8.746;2024-01-10T02:42:39;8.50;31.00
28548;DHT22;68292;49.600;8.746;2024-01-10T02:45:09;8.50;30.90
28548;DHT22;68292;49.600;8.746;2024-01-10T02:47:38;8.50;31.00
28548;DHT22;68292;49.600;8.746;2024-01-10T02:50:07;8.40;30.90
28548;DHT22;68292;49.600;8.746;2024-01-10T02:52:36;8.40;30.90
28548;DHT22;68292;49.600;8.746;2024-01-10T02:55:05;8.40;30.90
28548;DHT22;68292;49.600;8.746;2024-01-10T02:57:36;8.40;30.80
28548;DHT22;68292;49.600;8.746;2024-01-10T03:00:06;8.40;30.80
28548;DHT22;68292;49.600;8.746;2024-01-10T03:02:36;8.40;30.80
28548;DHT22;68292;49.600;8.746;2024-01-10T03:05:05;8.40;30.80
28548;DHT22;68292;49.600;8.746;2024-01-10T03:07:34;8.40;30.80
28548;DHT22;68292;49.600;8.746;2024-01-10T03:10:04;8.40;30.90
28548;DHT22;68292;49.600;8.746;2024-01-10T03:12:33;8.40;30.90
28548;DHT22;68292;49.600;8.746;2024-01-10T03:15:06;8.50;31.00
28548;DHT22;68292;49.600;8.746;2024-01-10T03:17:35;8.50;30.90
28548;DHT22;68292;49.600;8.746;2024-01-10T03:20:04;8.50;30.90
28548;DHT22;68292;49.600;8.746;2024-01-10T03:22:36;8.50;30.90
28548;DHT22;68292;49.600;8.746;2024-01-10T03:25:06;8.50;31.60
28548;DHT22;68292;49.600;8.746;2024-01-10T03:27:37;8.50;30.90
28548;DHT22;68292;49.600;8.746;2024-01-10T03:30:07;8.50;30.80
28548;DHT22;68292;49.600;8.746;2024-01-10T03:32:36;8.50;30.90
28548;DHT22;68292;49.600;8.746;2024-01-10T03:35:06;8.50;30.90
28548;DHT22;68292;49.600;8.746;2024-01-10T03:37:36;8.50;30.90
28548;DHT22;68292;49.600;8.746;2024-01-10T03:40:05;8.60;31.00
28548;DHT22;68292;49.600;8.746;2024-01-10T03:42:36;8.60;31.00
28548;DHT22;68292;49.600;8.746;2024-01-10T03:45:05;8.60;30.90
28548;DHT22;68292;49.600;8.746;2024-01-10T03:47:34;8.60;31.00
28548;DHT22;68292;49.600;8.746;2024-01-10T03:50:03;8.60;31.00
28548;DHT22;68292;49.600;8.746;2024-01-10T03:52:33;8.60;31.00
28548;DHT22;68292;49.600;8.746;2024-01-10T03:55:02;8.60;31.00
28548;DHT22;68292;49.600;8.746;2024-01-10T03:57:31;8.70;31.00
28548;DHT22;68292;49.600;8.746;2024-01-10T04:00:01;8.70;31.10
28548;DHT22;68292;49.600;8.746;2024-01-10T04:02:31;8.70;31.00
28548;DHT22;68292;49.600;8.746;2024-01-10T04:04:59;8.70;31.00
28548;DHT22;68292;49.600;8.746;2024-01-10T04:07:28;8.70;31.10
28548;DHT22;68292;49.600;8.746;2024-01-10T04:09:57;8.70;31.10
28548;DHT22;68292;49.600;8.746;2024-01-10T04:12:25;8.70;31.10
28548;DHT22;68292;49.600;8.746;2024-01-10T04:14:54;8.70;31.10
28548;DHT22;68292;49.600;8.746;2024-01-10T04:17:24;8.70;31.10
28548;DHT22;68292;49.600;8.746;2024-01-10T04:19:53;8.70;31.10
28548;DHT22;68292;49.600;8.746;2024-01-10T04:22:24;8.70;31.30
28548;DHT22;68292;49.600;8.746;2024-01-10T04:24:52;8.70;31.10
28548;DHT22;68292;49.600;8.746;2024-01-10T04:27:21;8.70;31.20
28548;DHT22;68292;49.600;8.746;2024-01-10T04:29:50;8.70;31.20
28548;DHT22;68292;49.600;8.746;2024-01-10T04:32:19;8.70;31.20
28548;DHT22;68292;49.600;8.746;2024-01-10T04:34:49;8.70;31.20
28548;DHT22;68292;49.600;8.746;2024-01-10T04:37:18;8.70;31.20
28548;DHT22;68292;49.600;8.746;2024-01-10T04:39:47;8.70;31.20
28548;DHT22;68292;49.600;8.746;2024-01-10T04:42:16;8.70;31.20
28548;DHT22;68292;49.600;8.746;2024-01-10T04:44:44;8.70;31.20
28548;DHT22;68292;49.600;8.746;2024-01-10T04:47:13;8.70;31.20
28548;DHT22;68292;49.600;8.746;2024-01-10T04:49:42;8.70;31.20
28548;DHT22;68292;49.600;8.746;2024-01-10T04:52:12;8.70;31.20
28548;DHT22;68292;49.600;8.746;2024-01-10T04:54:41;8.70;31.20
28548;DHT22;68292;49.600;8.746;2024-01-10T04:57:10;8.70;31.30
28548;DHT22;68292;49.600;8.746;2024-01-10T04:59:38;8.70;31.30
28548;DHT22;68292;49.600;8.746;2024-01-10T05:02:07;8.70;31.20
28548;DHT22;68292;49.600;8.746;2024-01-10T05:04:36;8.70;31.30
28548;DHT22;68292;49.600;8.746;2024-01-10T05:07:05;8.70;31.30
28548;DHT22;68292;49.600;8.746;2024-01-10T05:09:36;8.70;31.30
28548;DHT22;68292;49.600;8.746;2024-01-10T05:12:06;8.70;31.20
28548;DHT22;68292;49.600;8.746;2024-01-10T05:14:35;8.70;31.30
28548;DHT22;68292;49.600;8.746;2024-01-10T05:17:03;8.70;31.30
28548;DHT22;68292;49.600;8.746;2024-01-10T05:19:32;8.70;31.30
28548;DHT22;68292;49.600;8.746;2024-01-10T05:22:01;8.70;31.40
28548;DHT22;68292;49.600;8.746;2024-01-10T05:24:30;8.70;31.50
28548;DHT22;68292;49.600;8.746;2024-01-10T05:27:00;8.70;31.50
28548;DHT22;68292;49.600;8.746;2024-01-10T05:29:30;8.70;31.50
28548;DHT22;68292;49.600;8.746;2024-01-10T05:31:59;8.70;31.50
28548;DHT22;68292;49.600;8.746;2024-01-10T05:34:27;8.70;31.40
28548;DHT22;68292;49.600;8.746;2024-01-10T05:36:56;8.70;31.40
28548;DHT22;68292;49.600;8.746;2024-01-10T05:39:25;8.70;31.40
28548;DHT22;68292;49.600;8.746;2024-01-10T05:41:53;8.70;31.40
28548;DHT22;68292;49.600;8.746;2024-01-10T05:44:24;8.70;31.40
28548;DHT22;68292;49.600;8.746;2024-01-10T05:46:52;8.70;31.30
28548;DHT22;68292;49.600;8.746;2024-01-10T05:49:21;8.70;31.30
28548;DHT22;68292;49.600;8.746;2024-01-10T05:51:50;8.70;31.30
28548;DHT22;68292;49.600;8.746;2024-01-10T05:54:18;8.70;31.30
28548;DHT22;68292;49.600;8.746;2024-01-10T05:56:47;8.70;31.40
28548;DHT22;68292;49.600;8.746;2024-01-10T05:59:17;8.70;31.30
28548;DHT22;68292;49.600;8.746;2024-01-10T06:01:47;8.70;31.30
28548;DHT22;68292;49.600;8.746;2024-01-10T06:04:16;8.70;31.30
28548;DHT22;68292;49.600;8.746;2024-01-10T06:06:46;8.70;31.30
28548;DHT22;68292;49.600;8.746;2024-01-10T06:09:14;8.70;31.30
28548;DHT22;68292;49.600;8.746;2024-01-10T06:11:49;8.70;31.30
28548;DHT22;68292;49.600;8.746;2024-01-10T06:14:18;8.70;31.30
28548;DHT22;68292;49.600;8.746;2024-01-10T06:16:48;8.70;31.40
28548;DHT22;68292;49.600;8.746;2024-01-10T06:19:19;8.70;31.40
28548;DHT22;68292;49.600;8.746;2024-01-10T06:21:48;8.60;31.40
28548;DHT22;68292;49.600;8.746;2024-01-10T06:24:19;8.70;31.40
28548;DHT22;68292;49.600;8.746;2024-01-10T06:26:48;8.60;31.40
28548;DHT22;68292;49.600;8.746;2024-01-10T06:29:17;8.60;31.50
28548;DHT22;68292;49.600;8.746;2024-01-10T06:31:48;8.70;31.50
28548;DHT22;68292;49.600;8.746;2024-01-10T06:34:17;8.70;31.50
28548;DHT22;68292;49.600;8.746;2024-01-10T06:36:45;8.60;31.40
28548;DHT22;68292;49.600;8.746;2024-01-10T06:39:14;8.60;31.40
28548;DHT22;68292;49.600;8.746;2024-01-10T06:41:48;8.60;31.50
28548;DHT22;68292;49.600;8.746;2024-01-10T06:44:17;8.60;31.50
28548;DHT22;68292;49.600;8.746;2024-01-10T06:46:47;8.70;31.50
28548;DHT22;68292;49.600;8.746;2024-01-10T06:49:16;8.60;31.60
28548;DHT22;68292;49.600;8.746;2024-01-10T06:51:45;8.60;31.60
28548;DHT22;68292;49.600;8.746;2024-01-10T06:54:14;8.60;31.60
28548;DHT22;68292;49.600;8.746;2024-01-10T06:56:42;8.60;31.60
28548;DHT22;68292;49.600;8.746;2024-01-10T06:59:14;8.60;31.70
28548;DHT22;68292;49.600;8.746;2024-01-10T07:01:43;8.70;31.80
28548;DHT22;68292;49.600;8.746;2024-01-10T07:04:13;8.70;31.80
28548;DHT22;68292;49.600;8.746;2024-01-10T07:06:45;8.70;31.80
28548;DHT22;68292;49.600;8.746;2024-01-10T07:09:15;8.60;31.70
28548;DHT22;68292;49.600;8.746;2024-01-10T07:11:47;8.60;31.70
28548;DHT22;68292;49.600;8.746;2024-01-10T07:14:16;8.60;31.70
28548;DHT22;68292;49.600;8.746;2024-01-10T07:16:44;8.70;31.80
28548;DHT22;68292;49.600;8.746;2024-01-10T07:19:16;8.70;31.80
28548;DHT22;68292;49.600;8.746;2024-01-10T07:21:45;8.70;31.80
28548;DHT22;68292;49.600;8.746;2024-01-10T07:24:13;8.70;31.70
28548;DHT22;68292;49.600;8.746;2024-01-10T07:26:42;8.70;31.70
28548;DHT22;68292;49.600;8.746;2024-01-10T07:29:11;8.70;31.80
28548;DHT22;68292;49.600;8.746;2024-01-10T07:31:40;8.60;31.80
28548;DHT22;68292;49.600;8.746;2024-01-10T07:34:09;8.70;31.80
28548;DHT22;68292;49.600;8.746;2024-01-10T07:36:42;8.70;31.80
28548;DHT22;68292;49.600;8.746;2024-01-10T07:39:11;8.70;31.80
28548;DHT22;68292;49.600;8.746;2024-01-10T07:41:43;8.70;31.80
28548;DHT22;68292;49.600;8.746;2024-01-10T07:44:12;8.70;31.80
28548;DHT22;68292;49.600;8.746;2024-01-10T07:46:40;8.70;31.80
28548;DHT22;68292;49.600;8.746;2024-01-10T07:49:09;8.70;31.80
28548;DHT22;68292;49.600;8.746;2024-01-10T07:51:38;8.70;31.80
28548;DHT22;68292;49.600;8.746;2024-01-10T07:54:08;8.70;31.90
28548;DHT22;68292;49.600;8.746;2024-01-10T07:56:37;8.70;31.90
28548;DHT22;68292;49.600;8.746;2024-01-10T07:59:07;8.70;31.90
28548;DHT22;68292;49.600;8.746;2024-01-10T08:01:36;8.70;31.90
28548;DHT22;68292;49.600;8.746;2024-01-10T08:04:06;8.70;31.90
28548;DHT22;68292;49.600;8.746;2024-01-10T08:06:35;8.70;31.90
28548;DHT22;68292;49.600;8.746;2024-01-10T08:09:04;8.80;31.90
28548;DHT22;68292;49.600;8.746;2024-01-10T08:11:34;8.80;32.00
28548;DHT22;68292;49.600;8.746;2024-01-10T08:14:02;8.80;31.90
28548;DHT22;68292;49.600;8.746;2024-01-10T08:16:32;8.80;32.00
28548;DHT22;68292;49.600;8.746;2024-01-10T08:19:00;8.80;32.00
28548;DHT22;68292;49.600;8.746;2024-01-10T08:21:29;8.90;32.10
28548;DHT22;68292;49.600;8.746;2024-01-10T08:23:58;8.80;32.00
28548;DHT22;68292;49.600;8.746;2024-01-10T08:26:28;8.90;32.00
28548;DHT22;68292;49.600;8.746;2024-01-10T08:28:58;8.90;32.00
28548;DHT22;68292;49.600;8.746;2024-01-10T08:31:27;8.90;32.00
28548;DHT22;68292;49.600;8.746;2024-01-10T08:33:56;8.90;31.90
28548;DHT22;68292;49.600;8.746;2024-01-10T08:36:25;8.90;32.00
28548;DHT22;68292;49.600;8.746;2024-01-10T08:38:54;8.90;32.00
28548;DHT22;68292;49.600;8.746;2024-01-10T08:41:23;8.90;32.00
28548;DHT22;68292;49.600;8.746;2024-01-10T08:43:52;8.90;31.90
28548;DHT22;68292;49.600;8.746;2024-01-10T08:46:22;8.90;31.90
28548;DHT22;68292;49.600;8.746;2024-01-10T08:48:52;8.90;31.90
28548;DHT22;68292;49.600;8.746;2024-01-10T08:51:21;8.90;31.90
28548;DHT22;68292;49.600;8.746;2024-01-10T08:53:52;9.00;31.90
28548;DHT22;68292;49.600;8.746;2024-01-10T08:56:21;8.90;31.90
28548;DHT22;68292;49.600;8.746;2024-01-10T08:58:49;8.90;31.90
28548;DHT22;68292;49.600;8.746;2024-01-10T09:01:18;9.00;32.00
28548;DHT22;68292;49.600;8.746;2024-01-10T09:03:48;9.00;32.00
28548;DHT22;68292;49.600;8.746;2024-01-10T09:06:18;9.00;32.10
28548;DHT22;68292;49.600;8.746;2024-01-10T09:08:48;8.90;32.00
28548;DHT22;68292;49.600;8.746;2024-01-10T09:11:17;9.00;32.10
28548;DHT22;68292;49.600;8.746;2024-01-10T09:13:46;9.00;32.10
28548;DHT22;68292;49.600;8.746;2024-01-10T09:16:14;9.00;32.10
28548;DHT22;68292;49.600;8.746;2024-01-10T09:18:43;9.00;32.10
28548;DHT22;68292;49.600;8.746;2024-01-10T09:21:13;9.00;32.10
28548;DHT22;68292;49.600;8.746;2024-01-10T09:23:42;9.00;32.10
28548;DHT22;68292;49.600;8.746;2024-01-10T09:26:11;9.00;32.20
28548;DHT22;68292;49.600;8.746;2024-01-10T09:28:40;9.00;32.10
28548;DHT22;68292;49.600;8.746;2024-01-10T09:31:09;9.00;32.10
28548;DHT22;68292;49.600;8.746;2024-01-10T09:33:37;9.10;32.10
28548;DHT22;68292;49.600;8.746;2024-01-10T09:36:06;9.10;32.10
28548;DHT22;68292;49.600;8.746;2024-01-10T09:38:37;9.10;32.20
28548;DHT22;68292;49.600;8.746;2024-01-10T09:41:06;9.10;32.20
28548;DHT22;68292;49.600;8.746;2024-01-10T09:43:35;9.10;32.20
28548;DHT22;68292;49.600;8.746;2024-01-10T09:46:04;9.20;32.30
28548;DHT22;68292;49.600;8.746;2024-01-10T09:48:35;9.20;32.30
28548;DHT22;68292;49.600;8.746;2024-01-10T09:51:04;9.20;32.30
28548;DHT22;68292;49.600;8.746;2024-01-10T09:53:37;9.20;32.30
28548;DHT22;68292;49.600;8.746;2024-01-10T09:56:09;9.30;32.30
28548;DHT22;68292;49.600;8.746;2024-01-10T09:58:37;9.30;32.30
28548;DHT22;68292;49.600;8.746;2024-01-10T10:01:08;9.30;33.00
28548;DHT22;68292;49.600;8.746;2024-01-10T10:03:38;9.30;32.30
28548;DHT22;68292;49.600;8.746;2024-01-10T10:06:09;9.40;32.40
28548;DHT22;68292;49.600;8.746;2024-01-10T10:08:43;9.40;32.50
28548;DHT22;68292;49.600;8.746;2024-01-10T10:11:12;9.40;32.50
28548;DHT22;68292;49.600;8.746;2024-01-10T10:13:42;9.50;32.50
28548;DHT22;68292;49.600;8.746;2024-01-10T10:16:10;9.50;32.40
28548;DHT22;68292;49.600;8.746;2024-01-10T10:18:40;9.60;32.40
28548;DHT22;68292;49.600;8.746;2024-01-10T10:21:11;9.60;32.40
28548;DHT22;68292;49.600;8.746;2024-01-10T10:23:58;9.60;32.40
28548;DHT22;68292;49.600;8.746;2024-01-10T10:26:28;9.60;32.30
28548;DHT22;68292;49.600;8.746;2024-01-10T10:29:00;9.70;32.40
28548;DHT22;68292;49.600;8.746;2024-01-10T10:31:33;9.70;32.30
28548;DHT22;68292;49.600;8.746;2024-01-10T10:34:02;9.70;32.30
28548;DHT22;68292;49.600;8.746;2024-01-10T10:36:31;9.80;32.40
28548;DHT22;68292;49.600;8.746;2024-01-10T10:39:02;9.80;32.40
28548;DHT22;68292;49.600;8.746;2024-01-10T10:41:32;9.80;32.40
28548;DHT22;68292;49.600;8.746;2024-01-10T10:44:02;9.90;32.50
28548;DHT22;68292;49.600;8.746;2024-01-10T10:46:34;9.90;32.50
28548;DHT22;68292;49.600;8.746;2024-01-10T10:49:08;9.90;32.60
28548;DHT22;68292;49.600;8.746;2024-01-10T10:51:40;9.90;32.60
28548;DHT22;68292;49.600;8.746;2024-01-10T10:54:12;10.00;32.70
28548;DHT22;68292;49.600;8.746;2024-01-10T10:56:43;10.10;32.70
28548;DHT22;68292;49.600;8.746;2024-01-10T10:59:13;10.10;32.70
28548;DHT22;68292;49.600;8.746;2024-01-10T11:01:44;10.10;32.60
28548;DHT22;68292;49.600;8.746;2024-01-10T11:04:14;10.20;32.50
28548;DHT22;68292;49.600;8.746;2024-01-10T11:06:43;10.20;32.50
28548;DHT22;68292;49.600;8.746;2024-01-10T11:09:16;10.20;32.40
28548;DHT22;68292;49.600;8.746;2024-01-10T11:12:00;10.20;32.40
28548;DHT22;68292;49.600;8.746;2024-01-10T11:14:48;10.30;32.50
28548;DHT22;68292;49.600;8.746;2024-01-10T11:20:44;10.30;32.50
28548;DHT22;68292;49.600;8.746;2024-01-10T11:23:39;10.30;32.60
28548;DHT22;68292;49.600;8.746;2024-01-10T11:26:14;10.40;32.60
28548;DHT22;68292;49.600;8.746;2024-01-10T11:28:44;10.40;32.60
28548;DHT22;68292;49.600;8.746;2024-01-10T11:31:14;10.40;32.60
28548;DHT22;68292;49.600;8.746;2024-01-10T11:33:44;10.40;32.60
28548;DHT22;68292;49.600;8.746;2024-01-10T11:36:19;10.50;32.60
28548;DHT22;68292;49.600;8.746;2024-01-10T11:38:54;10.50;32.50
28548;DHT22;68292;49.600;8.746;2024-01-10T11:41:30;10.50;32.40
28548;DHT22;68292;49.600;8.746;2024-01-10T11:44:25;10.50;32.30
28548;DHT22;68292;49.600;8.746;2024-01-10T11:46:55;10.50;32.30
28548;DHT22;68292;49.600;8.746;2024-01-10T11:49:26;10.50;32.40
28548;DHT22;68292;49.600;8.746;2024-01-10T11:51:56;10.50;32.40
28548;DHT22;68292;49.600;8.746;2024-01-10T11:54:36;10.50;32.40
28548;DHT22;68292;49.600;8.746;2024-01-10T11:57:10;10.50;32.60
28548;DHT22;68292;49.600;8.746;2024-01-10T11:59:42;10.50;32.60
28548;DHT22;68292;49.600;8.746;2024-01-10T12:02:13;10.50;32.60
28548;DHT22;68292;49.600;8.746;2024-01-10T12:04:43;10.50;32.70
28548;DHT22;68292;49.600;8.746;2024-01-10T12:07:18;10.60;32.70
28548;DHT22;68292;49.600;8.746;2024-01-10T12:09:51;10.60;32.70
28548;DHT22;68292;49.600;8.746;2024-01-10T12:12:21;10.60;32.70
28548;DHT22;68292;49.600;8.746;2024-01-10T12:14:50;10.60;32.80
28548;DHT22;68292;49.600;8.746;2024-01-10T12:17:19;10.60;32.80
28548;DHT22;68292;49.600;8.746;2024-01-10T12:19:49;10.70;32.80
28548;DHT22;68292;49.600;8.746;2024-01-10T12:22:18;10.70;32.70
28548;DHT22;68292;49.600;8.746;2024-01-10T12:24:48;10.70;32.70
28548;DHT22;68292;49.600;8.746;2024-01-10T12:27:18;10.70;32.70
28548;DHT22;68292;49.600;8.746;2024-01-10T12:29:51;10.70;32.70
28548;DHT22;68292;49.600;8.746;2024-01-10T12:32:21;10.70;32.70
28548;DHT22;68292;49.600;8.746;2024-01-10T12:35:00;10.70;32.70
28548;DHT22;68292;49.600;8.746;2024-01-10T12:37:30;10.80;32.70
28548;DHT22;68292;49.600;8.746;2024-01-10T12:39:59;10.80;32.70
28548;DHT22;68292;49.600;8.746;2024-01-10T12:42:32;10.80;32.70
28548;DHT22;68292;49.600;8.746;2024-01-10T12:45:01;10.80;32.70
28548;DHT22;68292;49.600;8.746;2024-01-10T12:47:31;10.80;32.70
28548;DHT22;68292;49.600;8.746;2024-01-10T12:50:04;10.80;32.70
28548;DHT22;68292;49.600;8.746;2024-01-10T12:52:35;10.80;32.70
28548;DHT22;68292;49.600;8.746;2024-01-10T12:55:07;10.80;32.80
28548;DHT22;68292;49.600;8.746;2024-01-10T12:57:38;10.80;32.70
28548;DHT22;68292;49.600;8.746;2024-01-10T13:00:08;10.80;32.80
28548;DHT22;68292;49.600;8.746;2024-01-10T13:02:38;10.80;32.80
28548;DHT22;68292;49.600;8.746;2024-01-10T13:05:08;10.80;32.80
28548;DHT22;68292;49.600;8.746;2024-01-10T13:07:40;10.80;32.90
28548;DHT22;68292;49.600;8.746;2024-01-10T13:10:09;10.80;32.90
28548;DHT22;68292;49.600;8.746;2024-01-10T13:12:40;10.80;33.60
28548;DHT22;68292;49.600;8.746;2024-01-10T13:15:10;10.80;33.00
28548;DHT22;68292;49.600;8.746;2024-01-10T13:17:39;10.80;33.00
28548;DHT22;68292;49.600;8.746;2024-01-10T13:20:09;10.80;33.00
28548;DHT22;68292;49.600;8.746;2024-01-10T13:22:38;10.80;33.10
28548;DHT22;68292;49.600;8.746;2024-01-10T13:25:07;10.80;33.10
28548;DHT22;68292;49.600;8.746;2024-01-10T13:27:36;10.80;33.10
28548;DHT22;68292;49.600;8.746;2024-01-10T13:30:07;10.80;33.10
28548;DHT22;68292;49.600;8.746;2024-01-10T13:32:39;10.80;33.10
28548;DHT22;68292;49.600;8.746;2024-01-10T13:35:08;10.70;33.10
28548;DHT22;68292;49.600;8.746;2024-01-10T13:37:36;10.70;33.20
28548;DHT22;68292;49.600;8.746;2024-01-10T13:40:07;10.70;33.30
28548;DHT22;68292;49.600;8.746;2024-01-10T13:42:38;10.70;33.30
28548;DHT22;68292;49.600;8.746;2024-01-10T13:45:10;10.70;33.20
28548;DHT22;68292;49.600;8.746;2024-01-10T13:47:39;10.80;33.30
28548;DHT22;68292;49.600;8.746;2024-01-10T13:50:08;10.70;33.20
28548;DHT22;68292;49.600;8.746;2024-01-10T13:52:38;10.70;33.20
28548;DHT22;68292;49.600;8.746;2024-01-10T13:55:07;10.70;33.20
28548;DHT22;68292;49.600;8.746;2024-01-10T13:57:36;10.70;33.20
28548;DHT22;68292;49.600;8.746;2024-01-10T14:00:08;10.70;33.40
28548;DHT22;68292;49.600;8.746;2024-01-10T14:02:39;10.70;33.40
28548;DHT22;68292;49.600;8.746;2024-01-10T14:05:08;10.70;33.40
28548;DHT22;68292;49.600;8.746;2024-01-10T14:07:37;10.70;33.30
28548;DHT22;68292;49.600;8.746;2024-01-10T14:10:07;10.70;33.40
28548;DHT22;68292;49.600;8.746;2024-01-10T14:12:37;10.70;33.50
28548;DHT22;68292;49.600;8.746;2024-01-10T14:15:09;10.70;33.50
28548;DHT22;68292;49.600;8.746;2024-01-10T14:17:37;10.70;33.60
28548;DHT22;68292;49.600;8.746;2024-01-10T14:20:07;10.70;33.60
28548;DHT22;68292;49.600;8.746;2024-01-10T14:22:36;10.70;33.60
28548;DHT22;68292;49.600;8.746;2024-01-10T14:25:06;10.70;33.60
28548;DHT22;68292;49.600;8.746;2024-01-10T14:27:36;10.70;33.60
28548;DHT22;68292;49.600;8.746;2024-01-10T14:30:08;10.70;33.60
28548;DHT22;68292;49.600;8.746;2024-01-10T14:32:37;10.70;33.70
28548;DHT22;68292;49.600;8.746;2024-01-10T14:35:07;10.70;33.70
28548;DHT22;68292;49.600;8.746;2024-01-10T14:37:36;10.70;33.70
28548;DHT22;68292;49.600;8.746;2024-01-10T14:40:06;10.70;33.70
28548;DHT22;68292;49.600;8.746;2024-01-10T14:42:35;10.70;33.70
28548;DHT22;68292;49.600;8.746;2024-01-10T14:45:05;10.70;33.70
28548;DHT22;68292;49.600;8.746;2024-01-10T14:47:38;10.70;33.70
28548;DHT22;68292;49.600;8.746;2024-01-10T14:50:07;10.70;33.70
28548;DHT22;68292;49.600;8.746;2024-01-10T14:52:37;10.70;33.70
28548;DHT22;68292;49.600;8.746;2024-01-10T14:55:07;10.70;33.80
28548;DHT22;68292;49.600;8.746;2024-01-10T14:57:36;10.70;33.80
28548;DHT22;68292;49.600;8.746;2024-01-10T15:00:06;10.70;33.80
28548;DHT22;68292;49.600;8.746;2024-01-10T15:02:37;10.70;33.80
28548;DHT22;68292;49.600;8.746;2024-01-10T15:05:06;10.70;33.80
28548;DHT22;68292;49.600;8.746;2024-01-10T15:07:36;10.70;33.80
28548;DHT22;68292;49.600;8.746;2024-01-10T15:10:05;10.70;33.80
28548;DHT22;68292;49.600;8.746;2024-01-10T15:12:34;10.60;33.80
28548;DHT22;68292;49.600;8.746;2024-01-10T15:15:04;10.60;33.80
28548;DHT22;68292;49.600;8.746;2024-01-10T15:17:35;10.60;33.80
28548;DHT22;68292;49.600;8.746;2024-01-10T15:20:04;10.60;33.80
28548;DHT22;68292;49.600;8.746;2024-01-10T15:22:35;10.60;33.80
28548;DHT22;68292;49.600;8.746;2024-01-10T15:25:06;10.60;33.80
28548;DHT22;68292;49.600;8.746;2024-01-10T15:27:36;10.60;33.80
28548;DHT22;68292;49.600;8.746;2024-01-10T15:30:06;10.50;33.80
28548;DHT22;68292;49.600;8.746;2024-01-10T15:32:47;10.50;33.80
28548;DHT22;68292;49.600;8.746;2024-01-10T15:35:17;10.50;34.50
28548;DHT22;68292;49.600;8.746;2024-01-10T15:37:45;10.50;33.90
28548;DHT22;68292;49.600;8.746;2024-01-10T15:40:14;10.40;33.90
28548;DHT22;68292;49.600;8.746;2024-01-10T15:42:44;10.40;34.00
28548;DHT22;68292;49.600;8.746;2024-01-10T15:45:12;10.40;34.00
28548;DHT22;68292;49.600;8.746;2024-01-10T15:47:43;10.40;34.00
28548;DHT22;68292;49.600;8.746;2024-01-10T15:50:12;10.40;34.00
28548;DHT22;68292;49.600;8.746;2024-01-10T15:52:42;10.30;34.00
28548;DHT22;68292;49.600;8.746;2024-01-10T15:55:11;10.30;33.90
28548;DHT22;68292;49.600;8.746;2024-01-10T15:57:41;10.30;34.00
28548;DHT22;68292;49.600;8.746;2024-01-10T16:00:14;10.30;34.00
28548;DHT22;68292;49.600;8.746;2024-01-10T16:02:44;10.30;33.90